createdAt,value
2023-03-25T00:01:35.747Z,15.13
2023-03-25T00:04:05.295Z,13.43
2023-03-25T00:06:34.868Z,14.10
2023-03-25T00:09:05.022Z,14.40
2023-03-25T00:11:35.323Z,13.13
2023-03-25T00:14:04.542Z,14.03
2023-03-25T00:16:33.444Z,14.57
2023-03-25T00:19:02.597Z,14.57
2023-03-25T00:21:33.467Z,12.57
2023-03-25T00:24:02.337Z,14.07
2023-03-25T00:26:32.210Z,14.40
2023-03-25T00:29:02.633Z,14.13
2023-03-25T00:31:31.498Z,14.27
2023-03-25T00:34:00.258Z,14.27
2023-03-25T00:36:29.096Z,14.17
2023-03-25T00:38:58.034Z,13.20
2023-03-25T00:41:27.488Z,13.77
2023-03-25T00:43:58.169Z,14.23
2023-03-25T00:46:30.323Z,16.97
2023-03-25T00:49:00.535Z,17.47
2023-03-25T00:51:31.526Z,16.23
2023-03-25T00:54:01.659Z,14.30
2023-03-25T00:56:31.455Z,14.00
2023-03-25T00:59:00.424Z,13.77
2023-03-25T01:01:31.433Z,13.20
2023-03-25T01:04:01.045Z,13.60
2023-03-25T01:06:34.855Z,13.97
2023-03-25T01:09:06.800Z,13.93
2023-03-25T01:11:38.206Z,15.20
2023-03-25T01:14:08.803Z,16.13
2023-03-25T01:16:39.650Z,14.37
2023-03-25T01:19:08.472Z,15.37
2023-03-25T01:21:37.666Z,17.10
2023-03-25T01:24:08.255Z,16.63
2023-03-25T01:26:41.431Z,16.33
2023-03-25T01:29:10.614Z,15.43
2023-03-25T01:31:41.270Z,16.10
2023-03-25T01:34:10.503Z,16.03
2023-03-25T01:36:39.930Z,15.37
2023-03-25T01:39:10.608Z,15.23
2023-03-25T01:41:49.048Z,15.67
2023-03-25T01:44:57.327Z,15.27
2023-03-25T01:47:28.230Z,14.10
2023-03-25T01:49:57.283Z,14.97
2023-03-25T01:52:29.789Z,14.80
2023-03-25T01:55:00.874Z,15.23
2023-03-25T01:57:31.546Z,14.43
2023-03-25T02:00:00.641Z,14.10
2023-03-25T02:02:36.529Z,14.37
2023-03-25T02:05:10.662Z,13.53
2023-03-25T02:07:43.061Z,13.57
2023-03-25T02:10:14.094Z,13.30
2023-03-25T02:12:45.620Z,13.50
2023-03-25T02:15:19.008Z,13.87
2023-03-25T02:18:09.430Z,13.13
2023-03-25T02:21:18.321Z,11.97
2023-03-25T02:24:35.378Z,12.60
2023-03-25T02:27:27.266Z,12.83
2023-03-25T02:30:33.221Z,11.80
2023-03-25T02:33:47.007Z,11.80
2023-03-25T02:37:01.534Z,12.00
2023-03-25T02:39:38.215Z,11.57
2023-03-25T02:42:12.833Z,11.77
2023-03-25T02:44:47.562Z,11.13
2023-03-25T02:47:20.687Z,11.43
2023-03-25T02:49:54.349Z,11.23
2023-03-25T02:52:27.328Z,12.33
2023-03-25T02:55:04.369Z,13.00
2023-03-25T02:57:35.934Z,11.80
2023-03-25T03:00:14.606Z,11.20
2023-03-25T03:02:47.033Z,11.40
2023-03-25T03:05:27.530Z,11.97
2023-03-25T03:08:07.437Z,11.73
2023-03-25T03:10:46.212Z,11.37
2023-03-25T03:13:27.766Z,12.20
2023-03-25T03:16:01.300Z,11.53
2023-03-25T03:18:44.945Z,11.40
2023-03-25T03:21:17.693Z,10.73
2023-03-25T03:23:56.050Z,11.43
2023-03-25T03:26:35.095Z,11.23
2023-03-25T03:29:12.192Z,10.83
2023-03-25T03:31:48.677Z,10.57
2023-03-25T03:34:43.186Z,10.70
2023-03-25T03:37:15.429Z,11.17
2023-03-25T03:39:47.352Z,10.33
2023-03-25T03:42:22.855Z,10.60
2023-03-25T03:44:57.292Z,10.00
2023-03-25T03:47:29.391Z,10.30
2023-03-25T03:50:00.658Z,10.23
2023-03-25T03:52:33.601Z,10.77
2023-03-25T03:55:10.799Z,10.43
2023-03-25T03:57:46.401Z,9.50
2023-03-25T04:00:22.675Z,10.70
2023-03-25T04:02:55.155Z,11.23
2023-03-25T04:05:31.054Z,9.73
2023-03-25T04:08:04.568Z,9.73
2023-03-25T04:10:39.411Z,10.30
2023-03-25T04:13:13.971Z,10.27
2023-03-25T04:15:44.194Z,9.63
2023-03-25T04:18:13.282Z,10.17
2023-03-25T04:20:44.731Z,10.20
2023-03-25T04:23:16.138Z,9.17
2023-03-25T04:25:47.900Z,9.33
2023-03-25T04:28:18.888Z,8.67
2023-03-25T04:30:50.334Z,9.70
2023-03-25T04:33:20.944Z,9.40
2023-03-25T04:35:51.201Z,8.93
2023-03-25T04:38:20.808Z,8.70
2023-03-25T04:40:49.629Z,9.17
2023-03-25T04:43:19.803Z,8.73
2023-03-25T04:45:55.064Z,8.83
2023-03-25T04:48:30.168Z,9.83
2023-03-25T04:50:59.625Z,8.83
2023-03-25T04:53:28.658Z,9.03
2023-03-25T04:55:58.707Z,9.13
2023-03-25T04:58:29.465Z,9.43
2023-03-25T05:01:05.920Z,9.80
2023-03-25T05:03:35.388Z,9.50
2023-03-25T05:06:04.174Z,9.70
2023-03-25T05:08:33.741Z,9.53
2023-03-25T05:11:03.615Z,9.47
2023-03-25T05:13:33.772Z,9.43
2023-03-25T05:16:02.571Z,9.83
2023-03-25T05:18:31.419Z,10.20
2023-03-25T05:21:02.768Z,10.10
2023-03-25T05:23:31.764Z,9.70
2023-03-25T05:26:00.646Z,9.57
2023-03-25T05:28:30.433Z,8.33
2023-03-25T05:31:00.903Z,8.43
2023-03-25T05:33:29.732Z,8.43
2023-03-25T05:35:59.186Z,8.13
2023-03-25T05:38:28.095Z,8.43
2023-03-25T05:40:58.021Z,8.73
2023-03-25T05:43:26.831Z,8.77
2023-03-25T05:45:55.625Z,8.80
2023-03-25T05:48:26.493Z,8.80
2023-03-25T05:50:56.644Z,8.50
2023-03-25T05:53:25.551Z,7.67
2023-03-25T05:55:54.363Z,8.07
2023-03-25T05:58:25.144Z,8.50
2023-03-25T06:00:54.656Z,8.07
2023-03-25T06:03:26.285Z,8.20
2023-03-25T06:05:56.816Z,8.57
2023-03-25T06:08:27.033Z,7.73
2023-03-25T06:10:59.058Z,8.00
2023-03-25T06:13:28.229Z,7.57
2023-03-25T06:15:58.247Z,8.13
2023-03-25T06:18:27.081Z,8.10
2023-03-25T06:21:01.449Z,7.90
2023-03-25T06:23:30.350Z,11.60
2023-03-25T06:25:59.177Z,8.20
2023-03-25T06:28:28.023Z,7.80
2023-03-25T06:30:57.150Z,6.93
2023-03-25T06:33:42.747Z,6.90
2023-03-25T06:36:18.708Z,7.37
2023-03-25T06:38:48.114Z,8.57
2023-03-25T06:41:20.627Z,7.60
2023-03-25T06:43:56.640Z,7.13
2023-03-25T06:46:43.795Z,7.37
2023-03-25T06:49:30.938Z,6.83
2023-03-25T06:52:02.749Z,7.30
2023-03-25T06:54:31.538Z,7.73
2023-03-25T06:57:00.373Z,14.40
2023-03-25T06:59:29.152Z,8.80
2023-03-25T07:01:57.988Z,7.50
2023-03-25T07:04:26.873Z,7.30
2023-03-25T07:06:57.672Z,6.50
2023-03-25T07:09:27.983Z,7.17
2023-03-25T07:11:56.792Z,6.23
2023-03-25T07:14:25.615Z,5.57
2023-03-25T07:16:54.355Z,5.80
2023-03-25T07:19:23.174Z,5.20
2023-03-25T07:21:51.977Z,4.50
2023-03-25T07:24:20.849Z,4.70
2023-03-25T07:26:50.964Z,4.20
2023-03-25T07:29:23.386Z,4.20
2023-03-25T07:31:52.282Z,4.23
2023-03-25T07:34:21.075Z,4.50
2023-03-25T07:36:49.812Z,3.80
2023-03-25T07:39:19.114Z,4.20
2023-03-25T07:41:47.942Z,3.70
2023-03-25T07:44:32.360Z,3.80
2023-03-25T07:47:01.115Z,3.60
2023-03-25T07:49:29.988Z,3.90
2023-03-25T07:51:58.743Z,3.57
2023-03-25T07:54:28.558Z,3.90
2023-03-25T07:56:57.556Z,3.20
2023-03-25T07:59:28.830Z,3.57
2023-03-25T08:01:59.598Z,3.93
2023-03-25T08:04:28.464Z,3.67
2023-03-25T08:06:57.332Z,3.30
2023-03-25T08:09:27.272Z,4.07
2023-03-25T08:11:56.179Z,3.73
2023-03-25T08:14:24.915Z,3.80
2023-03-25T08:16:53.743Z,3.80
2023-03-25T08:19:24.101Z,4.00
2023-03-25T08:21:52.901Z,3.83
2023-03-25T08:24:21.664Z,3.33
2023-03-25T08:26:50.475Z,3.70
2023-03-25T08:29:20.172Z,3.40
2023-03-25T08:31:52.397Z,3.47
2023-03-25T08:34:23.861Z,3.00
2023-03-25T08:36:57.922Z,3.10
2023-03-25T08:39:29.976Z,3.50
2023-03-25T08:41:59.220Z,3.20
2023-03-25T08:44:28.071Z,3.03
2023-03-25T08:46:56.846Z,3.40
2023-03-25T08:49:27.061Z,3.67
2023-03-25T08:51:57.909Z,3.23
2023-03-25T08:54:27.290Z,3.10
2023-03-25T08:56:56.620Z,3.07
2023-03-25T08:59:25.484Z,3.13
2023-03-25T09:01:56.058Z,2.60
2023-03-25T09:04:26.964Z,2.53
2023-03-25T09:07:12.038Z,2.63
2023-03-25T09:09:41.591Z,2.50
2023-03-25T09:12:10.782Z,2.87
2023-03-25T09:14:39.835Z,2.03
2023-03-25T09:17:10.189Z,2.47
2023-03-25T09:19:40.669Z,1.90
2023-03-25T09:22:09.422Z,2.73
2023-03-25T09:24:38.868Z,2.47
2023-03-25T09:27:08.487Z,2.73
2023-03-25T09:29:37.196Z,2.33
2023-03-25T09:32:06.531Z,2.70
2023-03-25T09:34:35.871Z,3.40
2023-03-25T09:37:06.350Z,2.40
2023-03-25T09:39:35.136Z,2.20
2023-03-25T09:42:13.499Z,3.33
2023-03-25T09:44:54.084Z,4.20
2023-03-25T09:47:24.374Z,3.40
2023-03-25T09:49:57.474Z,2.57
2023-03-25T09:52:33.443Z,2.73
2023-03-25T09:55:05.542Z,2.50
2023-03-25T09:57:44.592Z,3.23
2023-03-25T10:00:19.093Z,4.13
2023-03-25T10:02:55.111Z,3.10
2023-03-25T10:05:41.033Z,2.00
2023-03-25T10:08:18.816Z,1.90
2023-03-25T10:10:53.892Z,2.03
2023-03-25T10:13:30.766Z,1.83
2023-03-25T10:16:05.179Z,1.70
2023-03-25T10:18:48.466Z,1.90
2023-03-25T10:21:24.806Z,1.53
2023-03-25T10:24:04.670Z,1.90
2023-03-25T10:26:41.988Z,1.87
2023-03-25T10:29:16.259Z,1.73
2023-03-25T10:31:52.407Z,2.07
2023-03-25T10:34:24.853Z,2.30
2023-03-25T10:36:58.161Z,2.00
2023-03-25T10:39:37.343Z,2.30
2023-03-25T10:42:18.263Z,2.20
2023-03-25T10:44:47.929Z,2.70
2023-03-25T10:47:20.502Z,2.00
2023-03-25T10:49:51.373Z,2.10
2023-03-25T10:52:20.295Z,2.20
2023-03-25T10:54:54.454Z,2.53
2023-03-25T10:57:27.807Z,2.40
2023-03-25T11:00:02.004Z,2.30
2023-03-25T11:02:32.478Z,1.50
2023-03-25T11:05:05.089Z,1.67
2023-03-25T11:07:37.603Z,2.03
2023-03-25T11:10:18.050Z,2.30
2023-03-25T11:12:48.124Z,1.00
2023-03-25T11:15:20.802Z,1.30
2023-03-25T11:17:58.404Z,1.50
2023-03-25T11:20:36.431Z,2.00
2023-03-25T11:23:14.802Z,0.90
2023-03-25T11:25:45.287Z,0.60
2023-03-25T11:28:19.063Z,0.90
2023-03-25T11:31:08.079Z,0.83
2023-03-25T11:33:37.965Z,0.70
2023-03-25T11:36:13.674Z,0.70
2023-03-25T11:38:42.403Z,0.50
2023-03-25T11:41:15.520Z,0.30
2023-03-25T11:43:44.462Z,0.40
2023-03-25T11:46:16.185Z,0.50
2023-03-25T11:48:47.253Z,0.77
2023-03-25T11:51:20.048Z,0.67
2023-03-25T11:53:51.448Z,0.80
2023-03-25T11:56:27.902Z,1.10
2023-03-25T11:58:59.804Z,1.00
2023-03-25T12:01:38.067Z,0.90
2023-03-25T12:04:15.467Z,1.50
2023-03-25T12:07:00.777Z,1.47
2023-03-25T12:09:31.483Z,1.30
2023-03-25T12:12:32.295Z,0.70
2023-03-25T12:15:12.050Z,0.80
2023-03-25T12:17:57.631Z,0.70
2023-03-25T12:20:33.635Z,1.00
2023-03-25T12:23:04.382Z,1.10
2023-03-25T12:25:40.506Z,0.73
2023-03-25T12:28:38.947Z,1.03
2023-03-25T12:31:21.500Z,1.40
2023-03-25T12:34:00.175Z,1.10
2023-03-25T12:36:39.021Z,0.90
2023-03-25T12:39:29.340Z,1.27
2023-03-25T12:42:13.266Z,1.20
2023-03-25T12:45:03.445Z,1.43
2023-03-25T12:47:36.908Z,1.20
2023-03-25T12:50:18.634Z,1.30
2023-03-25T12:53:00.700Z,1.47
2023-03-25T12:55:52.175Z,1.37
2023-03-25T12:58:45.714Z,1.17
2023-03-25T13:01:23.597Z,1.20
2023-03-25T13:04:16.025Z,1.50
2023-03-25T13:06:53.649Z,1.33
2023-03-25T13:09:27.829Z,1.40
2023-03-25T13:12:01.523Z,1.33
2023-03-25T13:14:34.691Z,1.20
2023-03-25T13:17:09.039Z,1.40
2023-03-25T13:19:42.715Z,1.87
2023-03-25T13:22:19.727Z,2.37
2023-03-25T13:24:52.676Z,1.87
2023-03-25T13:27:22.398Z,2.03
2023-03-25T13:29:55.890Z,1.80
2023-03-25T13:32:30.647Z,1.40
2023-03-25T13:35:04.620Z,1.80
2023-03-25T13:37:38.198Z,1.77
2023-03-25T13:40:24.403Z,2.13
2023-03-25T13:42:59.775Z,1.57
2023-03-25T13:45:31.540Z,1.80
2023-03-25T13:48:11.280Z,1.50
2023-03-25T13:50:41.009Z,1.13
2023-03-25T13:53:18.389Z,0.67
2023-03-25T13:55:53.121Z,0.83
2023-03-25T13:58:51.332Z,0.80
2023-03-25T14:01:48.097Z,1.13
2023-03-25T14:04:50.463Z,1.07
2023-03-25T14:07:58.839Z,0.97
2023-03-25T14:10:51.918Z,1.00
2023-03-25T14:13:26.639Z,1.00
2023-03-25T14:16:01.582Z,1.20
2023-03-25T14:18:32.353Z,1.30
2023-03-25T14:21:16.787Z,0.90
2023-03-25T14:23:45.686Z,1.70
2023-03-25T14:26:18.634Z,1.10
2023-03-25T14:28:48.529Z,1.10
2023-03-25T14:31:33.382Z,1.37
2023-03-25T14:34:34.841Z,1.23
2023-03-25T14:37:34.940Z,1.43
2023-03-25T14:40:58.970Z,1.43
2023-03-25T14:43:34.411Z,1.73
2023-03-25T14:46:18.507Z,1.60
2023-03-25T14:48:52.665Z,1.07
2023-03-25T14:51:36.455Z,0.40
2023-03-25T14:54:22.537Z,0.70
2023-03-25T14:56:57.970Z,0.70
2023-03-25T14:59:32.083Z,0.60
2023-03-25T15:02:15.348Z,0.90
2023-03-25T15:04:57.374Z,0.50
2023-03-25T15:07:47.460Z,0.90
2023-03-25T15:10:29.156Z,0.93
2023-03-25T15:13:04.752Z,1.77
2023-03-25T15:15:53.217Z,1.13
2023-03-25T15:18:55.510Z,2.00
2023-03-25T15:21:25.775Z,1.20
2023-03-25T15:24:01.488Z,1.13
2023-03-25T15:26:34.097Z,1.37
2023-03-25T15:29:23.811Z,1.57
2023-03-25T15:32:04.145Z,4.23
2023-03-25T15:34:47.170Z,7.90
2023-03-25T15:37:46.632Z,3.50
2023-03-25T15:40:26.519Z,1.70
2023-03-25T15:43:23.783Z,2.73
2023-03-25T15:46:26.227Z,2.30
2023-03-25T15:49:12.074Z,2.33
2023-03-25T15:52:02.503Z,3.07
2023-03-25T15:54:39.375Z,3.00
2023-03-25T15:57:19.209Z,2.40
2023-03-25T15:59:56.835Z,2.43
2023-03-25T16:02:31.733Z,2.20
2023-03-25T16:05:01.118Z,2.73
2023-03-25T16:07:31.374Z,4.00
2023-03-25T16:10:10.267Z,8.80
2023-03-25T16:12:39.050Z,5.60
2023-03-25T16:15:14.619Z,3.17
2023-03-25T16:17:45.628Z,3.10
2023-03-25T16:20:18.274Z,3.43
2023-03-25T16:22:51.778Z,3.40
2023-03-25T16:25:24.218Z,2.30
2023-03-25T16:27:55.961Z,2.90
2023-03-25T16:30:30.652Z,2.80
2023-03-25T16:33:12.840Z,8.50
2023-03-25T16:35:43.275Z,14.40
2023-03-25T16:38:17.277Z,13.77
2023-03-25T16:40:47.909Z,8.43
2023-03-25T16:43:19.931Z,7.60
2023-03-25T16:45:51.707Z,2.93
2023-03-25T16:48:25.168Z,7.07
2023-03-25T16:50:55.442Z,5.27
2023-03-25T16:53:25.028Z,1.90
2023-03-25T16:55:58.904Z,4.40
2023-03-25T16:58:29.151Z,3.40
2023-03-25T17:01:03.161Z,4.77
2023-03-25T17:03:46.410Z,3.60
2023-03-25T17:06:22.821Z,4.33
2023-03-25T17:08:54.209Z,3.87
2023-03-25T17:11:25.356Z,3.57
2023-03-25T17:13:59.602Z,3.80
2023-03-25T17:16:33.228Z,3.00
2023-03-25T17:19:04.404Z,2.90
2023-03-25T17:21:35.801Z,3.40
2023-03-25T17:24:21.623Z,2.87
2023-03-25T17:26:57.031Z,2.47
2023-03-25T17:29:25.906Z,2.37
2023-03-25T17:32:00.362Z,3.43
2023-03-25T17:34:42.831Z,3.03
2023-03-25T17:37:14.589Z,2.60
2023-03-25T17:39:50.120Z,3.67
2023-03-25T17:42:24.612Z,2.70
2023-03-25T17:44:54.744Z,2.70
2023-03-25T17:47:26.138Z,3.47
2023-03-25T17:49:55.026Z,4.13
2023-03-25T17:52:23.955Z,3.80
2023-03-25T17:54:52.802Z,3.63
2023-03-25T17:57:21.616Z,3.77
2023-03-25T17:59:51.483Z,2.90
2023-03-25T18:02:20.327Z,3.33
2023-03-25T18:04:50.622Z,3.00
2023-03-25T18:07:21.343Z,2.67
2023-03-25T18:09:50.146Z,2.27
2023-03-25T18:12:18.867Z,2.53
2023-03-25T18:14:49.845Z,3.87
2023-03-25T18:17:18.630Z,2.90
2023-03-25T18:19:47.340Z,3.93
2023-03-25T18:22:20.416Z,3.33
2023-03-25T18:24:49.320Z,4.87
2023-03-25T18:27:18.057Z,4.90
2023-03-25T18:29:46.835Z,2.60
2023-03-25T18:32:15.629Z,2.90
2023-03-25T18:34:44.779Z,3.07
2023-03-25T18:37:13.489Z,2.43
2023-03-25T18:39:43.646Z,2.50
2023-03-25T18:42:12.475Z,2.40
2023-03-25T18:44:42.192Z,5.77
2023-03-25T18:47:11.921Z,4.93
2023-03-25T18:49:40.788Z,3.60
2023-03-25T18:52:09.503Z,3.10
2023-03-25T18:54:38.355Z,2.90
2023-03-25T18:57:08.533Z,3.10
2023-03-25T18:59:37.390Z,2.90
2023-03-25T19:02:06.244Z,3.20
2023-03-25T19:04:36.507Z,2.90
2023-03-25T19:07:05.292Z,4.07
2023-03-25T19:09:34.505Z,4.40
2023-03-25T19:12:03.339Z,4.60
2023-03-25T19:14:33.629Z,5.00
2023-03-25T19:17:04.288Z,3.47
2023-03-25T19:19:33.362Z,3.50
2023-03-25T19:22:02.127Z,3.77
2023-03-25T19:24:31.442Z,3.50
2023-03-25T19:27:00.505Z,2.80
2023-03-25T19:29:29.320Z,2.67
2023-03-25T19:31:59.546Z,2.60
2023-03-25T19:34:28.355Z,2.70
2023-03-25T19:37:02.622Z,3.83
2023-03-25T19:39:31.627Z,4.13
2023-03-25T19:42:00.409Z,3.03
2023-03-25T19:44:29.183Z,2.90
2023-03-25T19:46:59.371Z,3.47
2023-03-25T19:49:39.190Z,4.03
2023-03-25T19:52:09.116Z,3.43
2023-03-25T19:54:37.865Z,3.20
2023-03-25T19:57:09.436Z,3.30
2023-03-25T19:59:38.450Z,2.63
2023-03-25T20:02:08.797Z,3.20
2023-03-25T20:04:37.583Z,3.40
2023-03-25T20:07:06.300Z,4.23
2023-03-25T20:09:35.207Z,4.07
2023-03-25T20:12:04.189Z,4.40
2023-03-25T20:14:33.406Z,4.87
2023-03-25T20:17:02.198Z,4.73
2023-03-25T20:19:33.722Z,4.17
2023-03-25T20:22:05.837Z,3.57
2023-03-25T20:24:38.654Z,4.43
2023-03-25T20:27:07.383Z,3.83
2023-03-25T20:29:36.783Z,3.20
2023-03-25T20:32:07.121Z,3.67
2023-03-25T20:34:38.308Z,3.80
2023-03-25T20:37:07.154Z,3.87
2023-03-25T20:39:35.925Z,4.00
2023-03-25T20:42:04.909Z,3.60
2023-03-25T20:44:34.449Z,3.60
2023-03-25T20:47:03.828Z,3.40
2023-03-25T20:49:33.090Z,3.03
2023-03-25T20:52:03.263Z,3.23
2023-03-25T20:54:32.224Z,10.20
2023-03-25T20:57:01.197Z,3.30
2023-03-25T20:59:30.033Z,5.03
2023-03-25T21:01:59.959Z,3.33
2023-03-25T21:04:29.070Z,2.50
2023-03-25T21:06:57.818Z,2.97
2023-03-25T21:09:28.028Z,3.00
2023-03-25T21:11:56.860Z,2.67
2023-03-25T21:14:25.699Z,2.57
2023-03-25T21:16:54.709Z,3.63
2023-03-25T21:19:23.730Z,3.17
2023-03-25T21:21:52.478Z,2.50
2023-03-25T21:24:22.344Z,3.53
2023-03-25T21:26:52.451Z,2.80
2023-03-25T21:29:21.643Z,3.13
2023-03-25T21:31:50.427Z,2.93
2023-03-25T21:34:20.107Z,3.23
2023-03-25T21:36:49.196Z,3.70
2023-03-25T21:39:18.075Z,2.90
2023-03-25T21:41:46.822Z,3.17
2023-03-25T21:44:17.052Z,3.20
2023-03-25T21:46:45.827Z,3.67
2023-03-25T21:49:15.553Z,3.50
2023-03-25T21:51:50.313Z,3.00
2023-03-25T21:54:19.137Z,3.50
2023-03-25T21:56:54.508Z,3.63
2023-03-25T21:59:24.919Z,3.90
2023-03-25T22:01:53.935Z,3.60
2023-03-25T22:04:23.064Z,3.27
2023-03-25T22:06:51.861Z,3.67
2023-03-25T22:09:20.762Z,3.50
2023-03-25T22:11:49.497Z,4.23
2023-03-25T22:14:18.335Z,3.60
2023-03-25T22:16:48.457Z,4.03
2023-03-25T22:19:17.272Z,3.47
2023-03-25T22:21:46.090Z,3.47
2023-03-25T22:24:14.921Z,3.73
2023-03-25T22:26:43.775Z,3.70
2023-03-25T22:29:13.613Z,3.63
2023-03-25T22:31:42.966Z,3.60
2023-03-25T22:34:16.000Z,3.87
2023-03-25T22:36:49.900Z,3.60
2023-03-25T22:39:19.642Z,3.20
2023-03-25T22:41:48.591Z,4.00
2023-03-25T22:44:18.094Z,3.70
2023-03-25T22:46:47.586Z,4.27
2023-03-25T22:49:18.512Z,3.47
2023-03-25T22:51:47.369Z,3.43
2023-03-25T22:54:16.243Z,2.90
2023-03-25T22:56:45.415Z,3.13
2023-03-25T22:59:15.605Z,3.37
2023-03-25T23:01:44.749Z,3.10
2023-03-25T23:04:13.532Z,3.40
2023-03-25T23:06:51.121Z,2.80
2023-03-25T23:09:41.357Z,2.80
2023-03-25T23:12:11.567Z,2.70
2023-03-25T23:14:41.706Z,2.60
2023-03-25T23:17:12.024Z,2.50
2023-03-25T23:19:41.184Z,2.60
2023-03-25T23:22:11.355Z,2.37
2023-03-25T23:24:40.691Z,2.73
2023-03-25T23:27:11.546Z,2.77
2023-03-25T23:29:41.755Z,2.40
2023-03-25T23:32:11.303Z,2.70
2023-03-25T23:34:40.321Z,3.30
2023-03-25T23:37:10.585Z,3.07
2023-03-25T23:39:40.584Z,2.37
2023-03-25T23:42:09.975Z,2.70
2023-03-25T23:44:38.817Z,1.97
2023-03-25T23:47:07.606Z,2.00
2023-03-25T23:49:38.354Z,2.03
2023-03-25T23:52:11.098Z,3.07
2023-03-25T23:54:43.021Z,2.90
2023-03-25T23:57:11.856Z,2.37
2023-03-25T23:59:40.630Z,2.17
